createdAt,value
2022-12-28T00:00:30.673Z,3.52
2022-12-28T00:01:30.631Z,3.39
2022-12-28T00:02:30.616Z,3.56
2022-12-28T00:03:30.544Z,3.56
2022-12-28T00:04:30.525Z,3.62
2022-12-28T00:05:30.556Z,3.60
2022-12-28T00:06:30.570Z,3.64
2022-12-28T00:07:30.493Z,3.54
2022-12-28T00:08:30.487Z,3.54
2022-12-28T00:09:30.479Z,3.54
2022-12-28T00:11:08.933Z,3.56
2022-12-28T00:11:31.498Z,3.49
2022-12-28T00:12:30.476Z,3.49
2022-12-28T00:13:30.435Z,3.52
2022-12-28T00:14:30.422Z,3.59
2022-12-28T00:15:30.416Z,3.59
2022-12-28T00:16:30.498Z,3.60
2022-12-28T00:17:30.388Z,3.81
2022-12-28T00:18:30.401Z,3.80
2022-12-28T00:19:30.457Z,3.86
2022-12-28T00:20:30.358Z,3.89
2022-12-28T00:21:30.390Z,3.89
2022-12-28T00:22:30.356Z,3.74
2022-12-28T00:23:30.328Z,3.81
2022-12-28T00:24:30.313Z,3.75
2022-12-28T00:25:30.356Z,3.82
2022-12-28T00:26:30.324Z,3.74
2022-12-28T00:27:30.294Z,3.60
2022-12-28T00:28:30.276Z,3.63
2022-12-28T00:29:30.327Z,3.56
2022-12-28T00:30:30.257Z,3.57
2022-12-28T00:31:30.331Z,3.64
2022-12-28T00:32:30.235Z,3.60
2022-12-28T00:33:30.218Z,3.59
2022-12-28T00:34:30.257Z,3.46
2022-12-28T00:35:30.204Z,3.45
2022-12-28T00:37:10.259Z,3.60
2022-12-28T00:37:31.207Z,3.53
2022-12-28T00:38:30.170Z,3.54
2022-12-28T00:39:30.220Z,3.54
2022-12-28T00:40:30.148Z,3.42
2022-12-28T00:41:30.155Z,3.42
2022-12-28T00:42:30.120Z,3.23
2022-12-28T00:43:30.108Z,3.20
2022-12-28T00:44:30.159Z,3.20
2022-12-28T00:45:30.179Z,3.16
2022-12-28T00:46:30.113Z,3.16
2022-12-28T00:47:30.064Z,3.12
2022-12-28T00:48:30.064Z,3.10
2022-12-28T00:49:30.198Z,3.05
2022-12-28T00:50:30.072Z,2.94
2022-12-28T00:51:30.050Z,2.92
2022-12-28T00:52:30.022Z,2.90
2022-12-28T00:53:30.033Z,2.97
2022-12-28T00:54:30.020Z,3.07
2022-12-28T00:55:29.984Z,3.08
2022-12-28T00:56:30.034Z,3.10
2022-12-28T00:57:29.974Z,3.05
2022-12-28T00:58:29.967Z,3.13
2022-12-28T00:59:29.949Z,3.05
2022-12-28T01:00:29.936Z,3.12
2022-12-28T01:01:30.276Z,2.94
2022-12-28T01:02:29.970Z,2.84
2022-12-28T01:03:29.901Z,2.87
2022-12-28T01:04:30.028Z,2.92
2022-12-28T01:05:29.881Z,2.98
2022-12-28T01:06:29.891Z,3.16
2022-12-28T01:07:29.865Z,3.10
2022-12-28T01:08:29.866Z,3.04
2022-12-28T01:09:29.854Z,2.98
2022-12-28T01:10:29.841Z,2.95
2022-12-28T01:11:29.843Z,2.98
2022-12-28T01:12:34.603Z,3.07
2022-12-28T01:13:30.795Z,3.08
2022-12-28T01:14:29.806Z,3.07
2022-12-28T01:15:29.777Z,3.16
2022-12-28T01:16:29.810Z,3.31
2022-12-28T01:17:29.758Z,3.49
2022-12-28T01:18:29.746Z,3.59
2022-12-28T01:19:29.741Z,3.75
2022-12-28T01:20:29.765Z,3.78
2022-12-28T01:21:29.758Z,3.93
2022-12-28T01:22:29.704Z,3.99
2022-12-28T01:23:29.685Z,4.00
2022-12-28T01:24:29.684Z,4.08
2022-12-28T01:25:29.701Z,4.04
2022-12-28T01:26:29.691Z,4.14
2022-12-28T01:27:29.667Z,4.14
2022-12-28T01:28:29.642Z,4.18
2022-12-28T01:29:29.618Z,4.28
2022-12-28T01:30:29.611Z,4.35
2022-12-28T01:31:29.684Z,4.38
2022-12-28T01:32:29.598Z,4.34
2022-12-28T01:33:29.628Z,4.50
2022-12-28T01:34:29.575Z,4.49
2022-12-28T01:35:29.555Z,4.50
2022-12-28T01:36:29.559Z,4.50
2022-12-28T01:37:29.558Z,4.62
2022-12-28T01:38:29.530Z,4.65
2022-12-28T01:39:29.533Z,4.59
2022-12-28T01:40:29.504Z,4.59
2022-12-28T01:41:29.543Z,4.65
2022-12-28T01:42:29.494Z,4.61
2022-12-28T01:43:30.097Z,4.64
2022-12-28T01:44:29.469Z,4.68
2022-12-28T01:45:29.529Z,4.65
2022-12-28T01:46:29.476Z,4.59
2022-12-28T01:47:29.430Z,4.64
2022-12-28T01:48:29.419Z,4.54
2022-12-28T01:49:29.405Z,4.61
2022-12-28T01:50:29.430Z,4.56
2022-12-28T01:51:29.447Z,4.57
2022-12-28T01:52:29.382Z,4.62
2022-12-28T01:53:29.363Z,4.65
2022-12-28T01:54:29.359Z,4.57
2022-12-28T01:55:29.351Z,4.64
2022-12-28T01:56:29.362Z,4.62
2022-12-28T01:57:29.347Z,4.65
2022-12-28T01:58:29.312Z,4.57
2022-12-28T01:59:29.303Z,4.51
2022-12-28T02:00:29.310Z,4.51
2022-12-28T02:01:29.401Z,4.43
2022-12-28T02:02:29.479Z,4.29
2022-12-28T02:03:29.278Z,4.25
2022-12-28T02:04:29.271Z,4.17
2022-12-28T02:05:29.240Z,4.13
2022-12-28T02:06:29.243Z,4.17
2022-12-28T02:07:29.222Z,3.99
2022-12-28T02:08:29.221Z,3.93
2022-12-28T02:09:29.211Z,3.92
2022-12-28T02:10:41.113Z,3.93
2022-12-28T02:11:30.195Z,4.00
2022-12-28T02:12:29.264Z,3.96
2022-12-28T02:13:29.175Z,3.96
2022-12-28T02:14:29.149Z,3.96
2022-12-28T02:15:29.139Z,3.96
2022-12-28T02:16:29.243Z,3.99
2022-12-28T02:17:29.123Z,4.04
2022-12-28T02:18:29.129Z,4.20
2022-12-28T02:19:29.097Z,4.36
2022-12-28T02:20:29.089Z,4.51
2022-12-28T02:21:29.086Z,4.64
2022-12-28T02:22:29.099Z,4.65
2022-12-28T02:23:29.057Z,4.65
2022-12-28T02:24:29.067Z,4.84
2022-12-28T02:25:29.028Z,5.08
2022-12-28T02:26:29.075Z,5.17
2022-12-28T02:27:29.016Z,5.20
2022-12-28T02:28:29.026Z,5.22
2022-12-28T02:29:29.022Z,5.11
2022-12-28T02:30:29.046Z,5.15
2022-12-28T02:31:28.980Z,5.29
2022-12-28T02:32:28.954Z,5.37
2022-12-28T02:33:28.944Z,5.67
2022-12-28T02:34:28.960Z,5.80
2022-12-28T02:35:28.924Z,5.99
2022-12-28T02:36:28.950Z,6.11
2022-12-28T02:37:28.902Z,6.16
2022-12-28T02:38:28.895Z,6.35
2022-12-28T02:39:28.887Z,6.35
2022-12-28T02:40:28.921Z,6.50
2022-12-28T02:41:28.893Z,6.53
2022-12-28T02:42:28.848Z,6.51
2022-12-28T02:43:28.842Z,6.53
2022-12-28T02:44:28.835Z,6.42
2022-12-28T02:45:28.829Z,6.51
2022-12-28T02:46:28.906Z,6.51
2022-12-28T02:47:28.822Z,6.51
2022-12-28T02:48:28.793Z,6.38
2022-12-28T02:49:28.793Z,6.48
2022-12-28T02:50:28.792Z,6.48
2022-12-28T02:51:28.770Z,6.50
2022-12-28T02:52:28.745Z,6.58
2022-12-28T02:53:28.748Z,6.58
2022-12-28T02:54:28.725Z,6.68
2022-12-28T02:55:28.733Z,6.68
2022-12-28T02:56:28.723Z,6.65
2022-12-28T02:57:28.699Z,6.55
2022-12-28T02:58:28.684Z,6.55
2022-12-28T02:59:28.720Z,6.50
2022-12-28T03:00:28.655Z,6.54
2022-12-28T03:01:28.813Z,6.45
2022-12-28T03:02:28.850Z,6.36
2022-12-28T03:03:28.738Z,6.17
2022-12-28T03:04:28.626Z,6.08
2022-12-28T03:05:28.660Z,6.01
2022-12-28T03:06:30.519Z,5.92
2022-12-28T03:07:28.596Z,5.80
2022-12-28T03:08:28.575Z,5.69
2022-12-28T03:09:28.561Z,5.45
2022-12-28T03:10:28.598Z,5.35
2022-12-28T03:11:28.590Z,5.35
2022-12-28T03:12:28.543Z,5.24
2022-12-28T03:13:28.525Z,5.33
2022-12-28T03:14:28.505Z,5.33
2022-12-28T03:15:28.531Z,5.22
2022-12-28T03:16:28.515Z,5.26
2022-12-28T03:17:28.495Z,5.15
2022-12-28T03:18:28.498Z,5.12
2022-12-28T03:19:28.465Z,5.15
2022-12-28T03:20:28.450Z,5.19
2022-12-28T03:21:28.449Z,5.49
2022-12-28T03:22:28.436Z,5.81
2022-12-28T03:23:28.450Z,6.02
2022-12-28T03:24:28.456Z,6.27
2022-12-28T03:25:28.396Z,6.36
2022-12-28T03:26:28.404Z,6.53
2022-12-28T03:27:28.367Z,6.61
2022-12-28T03:28:28.360Z,6.73
2022-12-28T03:29:28.387Z,6.96
2022-12-28T03:30:28.351Z,7.01
2022-12-28T03:31:28.375Z,7.24
2022-12-28T03:32:28.315Z,7.41
2022-12-28T03:33:28.319Z,7.50
2022-12-28T03:34:28.290Z,7.67
2022-12-28T03:35:28.309Z,7.73
2022-12-28T03:36:28.287Z,7.79
2022-12-28T03:37:28.273Z,7.84
2022-12-28T03:38:28.270Z,7.81
2022-12-28T03:39:28.245Z,7.84
2022-12-28T03:40:28.228Z,7.94
2022-12-28T03:41:28.281Z,7.96
2022-12-28T03:42:28.210Z,7.94
2022-12-28T03:43:28.202Z,7.92
2022-12-28T03:44:28.189Z,7.89
2022-12-28T03:45:46.523Z,8.03
2022-12-28T03:46:29.207Z,8.02
2022-12-28T03:47:28.172Z,8.03
2022-12-28T03:48:28.156Z,8.02
2022-12-28T03:49:28.166Z,7.96
2022-12-28T03:50:28.126Z,7.88
2022-12-28T03:51:28.148Z,7.92
2022-12-28T03:52:28.105Z,8.00
2022-12-28T03:53:28.138Z,7.96
2022-12-28T03:54:28.089Z,7.95
2022-12-28T03:55:28.066Z,7.94
2022-12-28T03:56:28.198Z,7.91
2022-12-28T03:57:28.048Z,7.92
2022-12-28T03:58:28.034Z,8.03
2022-12-28T03:59:28.078Z,7.95
2022-12-28T04:00:28.018Z,7.99
2022-12-28T04:01:28.298Z,8.02
2022-12-28T04:02:28.079Z,7.96
2022-12-28T04:03:28.032Z,7.86
2022-12-28T04:04:27.991Z,7.85
2022-12-28T04:05:27.992Z,7.96
2022-12-28T04:06:28.290Z,7.85
2022-12-28T04:07:28.004Z,7.86
2022-12-28T04:08:27.987Z,7.99
2022-12-28T04:09:27.931Z,8.06
2022-12-28T04:10:27.922Z,8.24
2022-12-28T04:11:27.935Z,8.24
2022-12-28T04:12:27.905Z,8.13
2022-12-28T04:13:27.922Z,8.04
2022-12-28T04:14:27.869Z,7.95
2022-12-28T04:15:27.866Z,8.09
2022-12-28T04:16:27.859Z,8.24
2022-12-28T04:17:27.890Z,8.13
2022-12-28T04:18:27.843Z,8.12
2022-12-28T04:19:27.813Z,8.17
2022-12-28T04:20:27.798Z,8.02
2022-12-28T04:21:27.856Z,8.09
2022-12-28T04:22:27.787Z,8.14
2022-12-28T04:23:27.780Z,8.24
2022-12-28T04:24:27.793Z,8.20
2022-12-28T04:25:27.758Z,8.12
2022-12-28T04:26:27.750Z,8.12
2022-12-28T04:27:27.726Z,8.27
2022-12-28T04:28:27.711Z,8.21
2022-12-28T04:29:27.767Z,8.12
2022-12-28T04:30:27.711Z,8.06
2022-12-28T04:31:27.742Z,7.99
2022-12-28T04:32:27.668Z,7.96
2022-12-28T04:33:27.657Z,7.99
2022-12-28T04:34:27.648Z,7.95
2022-12-28T04:35:27.696Z,7.82
2022-12-28T04:36:27.627Z,7.85
2022-12-28T04:37:27.640Z,7.71
2022-12-28T04:38:27.601Z,7.81
2022-12-28T04:39:27.596Z,7.88
2022-12-28T04:40:28.608Z,7.89
2022-12-28T04:41:27.610Z,7.99
2022-12-28T04:42:27.570Z,7.99
2022-12-28T04:43:27.564Z,8.03
2022-12-28T04:44:27.544Z,8.18
2022-12-28T04:45:27.578Z,8.14
2022-12-28T04:46:27.570Z,8.18
2022-12-28T04:47:27.547Z,8.12
2022-12-28T04:48:27.504Z,8.02
2022-12-28T04:49:27.507Z,8.00
2022-12-28T04:50:27.486Z,8.00
2022-12-28T04:51:27.487Z,7.99
2022-12-28T04:52:27.455Z,8.02
2022-12-28T04:53:27.489Z,8.13
2022-12-28T04:54:27.434Z,8.10
2022-12-28T04:55:32.338Z,8.17
2022-12-28T04:56:28.522Z,8.07
2022-12-28T04:57:27.398Z,8.24
2022-12-28T04:58:27.389Z,8.20
2022-12-28T04:59:27.386Z,8.00
2022-12-28T05:00:27.460Z,8.12
2022-12-28T05:01:27.510Z,8.14
2022-12-28T05:02:27.534Z,8.14
2022-12-28T05:03:27.333Z,8.13
2022-12-28T05:04:27.337Z,8.21
2022-12-28T05:05:27.324Z,8.14
2022-12-28T05:06:27.418Z,8.06
2022-12-28T05:07:27.311Z,7.99
2022-12-28T05:08:27.288Z,8.06
2022-12-28T05:09:27.299Z,7.92
2022-12-28T05:10:27.285Z,8.00
2022-12-28T05:11:27.285Z,7.96
2022-12-28T05:12:27.236Z,8.02
2022-12-28T05:13:27.262Z,7.96
2022-12-28T05:14:29.854Z,8.02
2022-12-28T05:15:28.218Z,7.96
2022-12-28T05:16:27.320Z,8.02
2022-12-28T05:17:27.186Z,7.96
2022-12-28T05:18:27.173Z,7.92
2022-12-28T05:19:27.209Z,7.91
2022-12-28T05:20:27.154Z,7.92
2022-12-28T05:21:27.199Z,7.95
2022-12-28T05:22:27.131Z,8.03
2022-12-28T05:23:27.132Z,8.00
2022-12-28T05:24:27.111Z,8.06
2022-12-28T05:25:27.141Z,8.24
2022-12-28T05:26:27.105Z,8.14
2022-12-28T05:27:27.080Z,8.00
2022-12-28T05:28:27.067Z,8.12
2022-12-28T05:29:27.062Z,8.20
2022-12-28T05:30:27.047Z,8.13
2022-12-28T05:31:27.150Z,8.12
2022-12-28T05:32:27.029Z,8.14
2022-12-28T05:33:27.026Z,8.00
2022-12-28T05:34:27.000Z,8.18
2022-12-28T05:35:27.003Z,8.07
2022-12-28T05:36:26.996Z,8.17
2022-12-28T05:37:27.008Z,7.99
2022-12-28T05:38:26.972Z,8.04
2022-12-28T05:39:26.947Z,7.99
2022-12-28T05:40:26.943Z,8.02
2022-12-28T05:41:26.995Z,8.18
2022-12-28T05:42:26.928Z,8.20
2022-12-28T05:43:26.915Z,8.24
2022-12-28T05:44:26.925Z,8.31
2022-12-28T05:45:26.884Z,8.28
2022-12-28T05:46:26.943Z,8.27
2022-12-28T05:47:26.865Z,8.34
2022-12-28T05:48:26.851Z,8.32
2022-12-28T05:49:26.841Z,8.28
2022-12-28T05:50:26.855Z,8.32
2022-12-28T05:51:26.854Z,8.46
2022-12-28T05:52:26.808Z,8.58
2022-12-28T05:53:26.801Z,8.47
2022-12-28T05:54:26.785Z,8.60
2022-12-28T05:55:26.794Z,8.57
2022-12-28T05:56:26.808Z,8.50
2022-12-28T05:57:26.781Z,8.43
2022-12-28T05:58:26.755Z,8.37
2022-12-28T05:59:26.734Z,8.45
2022-12-28T06:00:26.737Z,8.49
2022-12-28T06:01:26.861Z,8.47
2022-12-28T06:02:26.936Z,8.40
2022-12-28T06:03:26.889Z,8.43
2022-12-28T06:04:26.684Z,8.54
2022-12-28T06:05:26.674Z,8.58
2022-12-28T06:06:26.677Z,8.64
2022-12-28T06:07:26.652Z,8.70
2022-12-28T06:08:26.640Z,8.70
2022-12-28T06:09:26.644Z,8.67
2022-12-28T06:10:26.628Z,8.58
2022-12-28T06:11:26.666Z,8.71
2022-12-28T06:12:26.594Z,8.65
2022-12-28T06:13:26.603Z,8.68
2022-12-28T06:14:26.568Z,8.63
2022-12-28T06:15:26.565Z,8.61
2022-12-28T06:16:26.689Z,8.64
2022-12-28T06:17:26.558Z,8.58
2022-12-28T06:18:26.530Z,8.52
2022-12-28T06:19:26.534Z,8.47
2022-12-28T06:20:26.513Z,8.49
2022-12-28T06:21:26.667Z,8.37
2022-12-28T06:22:26.507Z,8.34
2022-12-28T06:23:26.524Z,8.36
2022-12-28T06:24:26.467Z,8.29
2022-12-28T06:25:26.466Z,8.27
2022-12-28T06:26:26.465Z,8.27
2022-12-28T06:27:26.429Z,8.32
2022-12-28T06:28:26.433Z,8.25
2022-12-28T06:29:26.433Z,8.31
2022-12-28T06:30:26.395Z,8.45
2022-12-28T06:31:26.548Z,8.32
2022-12-28T06:32:26.380Z,8.34
2022-12-28T06:33:26.392Z,8.24
2022-12-28T06:34:26.374Z,8.17
2022-12-28T06:35:26.363Z,8.21
2022-12-28T06:36:26.395Z,8.25
2022-12-28T06:37:26.331Z,8.29
2022-12-28T06:38:26.308Z,8.32
2022-12-28T06:39:26.302Z,8.42
2022-12-28T06:40:33.488Z,8.49
2022-12-28T06:41:27.312Z,8.49
2022-12-28T06:42:26.381Z,8.42
2022-12-28T06:43:26.281Z,8.45
2022-12-28T06:44:26.255Z,8.45
2022-12-28T06:45:26.262Z,8.50
2022-12-28T06:46:26.244Z,8.58
2022-12-28T06:49:51.991Z,8.67
2022-12-28T06:50:51.957Z,8.63
2022-12-28T06:51:51.960Z,8.63
2022-12-28T06:52:51.933Z,8.70
2022-12-28T06:53:51.923Z,8.73
2022-12-28T06:54:51.925Z,8.58
2022-12-28T06:55:51.931Z,8.57
2022-12-28T06:56:51.919Z,8.57
2022-12-28T06:57:51.880Z,8.65
2022-12-28T06:58:54.486Z,8.61
2022-12-28T06:59:52.866Z,8.70
2022-12-28T07:00:51.955Z,8.73
2022-12-28T07:01:52.080Z,8.58
2022-12-28T07:02:51.861Z,8.68
2022-12-28T07:03:51.827Z,8.71
2022-12-28T07:04:51.859Z,8.67
2022-12-28T07:05:51.822Z,8.76
2022-12-28T07:06:51.802Z,8.75
2022-12-28T07:07:51.773Z,8.76
2022-12-28T07:08:51.765Z,8.61
2022-12-28T07:09:51.755Z,8.60
2022-12-28T07:10:51.761Z,8.65
2022-12-28T07:11:51.822Z,8.63
2022-12-28T07:12:51.728Z,8.65
2022-12-28T07:13:51.713Z,8.58
2022-12-28T07:14:51.700Z,8.71
2022-12-28T07:15:51.687Z,8.60
2022-12-28T07:16:51.712Z,8.60
2022-12-28T07:17:51.707Z,8.67
2022-12-28T07:18:51.655Z,8.71
2022-12-28T07:19:51.655Z,8.73
2022-12-28T07:20:51.638Z,8.70
2022-12-28T07:21:51.640Z,8.58
2022-12-28T07:22:51.614Z,8.57
2022-12-28T07:23:51.624Z,8.67
2022-12-28T07:24:51.605Z,8.83
2022-12-28T07:25:51.581Z,8.86
2022-12-28T07:26:51.586Z,8.86
2022-12-28T07:27:51.562Z,8.86
2022-12-28T07:28:51.558Z,8.93
2022-12-28T07:29:51.560Z,8.86
2022-12-28T07:30:51.592Z,8.88
2022-12-28T07:31:51.540Z,8.79
2022-12-28T07:32:51.527Z,8.65
2022-12-28T07:33:51.508Z,8.68
2022-12-28T07:34:51.490Z,8.64
2022-12-28T07:35:51.516Z,8.58
2022-12-28T07:36:51.478Z,8.52
2022-12-28T07:37:51.455Z,8.39
2022-12-28T07:38:51.477Z,8.34
2022-12-28T07:39:51.430Z,8.32
2022-12-28T07:40:51.420Z,8.13
2022-12-28T07:41:51.443Z,8.14
2022-12-28T07:42:51.397Z,8.04
2022-12-28T07:43:51.401Z,8.12
2022-12-28T07:44:51.370Z,8.07
2022-12-28T07:45:51.390Z,8.12
2022-12-28T07:46:51.349Z,8.04
2022-12-28T07:47:51.353Z,7.99
2022-12-28T07:48:51.370Z,7.86
2022-12-28T07:49:51.355Z,7.74
2022-12-28T07:50:51.315Z,7.63
2022-12-28T07:51:51.298Z,7.58
2022-12-28T07:52:51.293Z,7.55
2022-12-28T07:53:51.312Z,7.55
2022-12-28T07:54:51.371Z,7.50
2022-12-28T07:55:51.273Z,7.47
2022-12-28T07:56:51.271Z,7.50
2022-12-28T07:57:51.281Z,7.42
2022-12-28T07:58:51.225Z,7.48
2022-12-28T07:59:51.235Z,7.62
2022-12-28T08:00:51.288Z,7.69
2022-12-28T08:04:14.627Z,8.18
2022-12-28T08:05:11.186Z,8.28
2022-12-28T08:06:11.173Z,8.39
2022-12-28T08:07:11.160Z,8.61
2022-12-28T08:08:11.149Z,8.67
2022-12-28T08:09:11.147Z,8.97
2022-12-28T08:10:11.137Z,8.94
2022-12-28T08:11:11.127Z,9.10
2022-12-28T08:12:11.112Z,9.26
2022-12-28T08:13:11.130Z,9.27
2022-12-28T08:14:11.104Z,9.38
2022-12-28T08:15:11.061Z,9.45
2022-12-28T08:16:11.147Z,9.45
2022-12-28T08:17:14.843Z,9.53
2022-12-28T08:18:12.036Z,9.56
2022-12-28T08:19:11.025Z,9.62
2022-12-28T08:20:11.046Z,9.56
2022-12-28T08:21:11.063Z,9.50
2022-12-28T08:22:10.990Z,9.60
2022-12-28T08:23:10.987Z,9.65
2022-12-28T08:24:10.978Z,9.58
2022-12-28T08:25:11.083Z,9.63
2022-12-28T08:26:11.059Z,9.65
2022-12-28T08:27:11.015Z,9.78
2022-12-28T08:28:11.577Z,9.70
2022-12-28T08:29:10.951Z,9.67
2022-12-28T08:30:10.912Z,9.65
2022-12-28T08:31:10.955Z,9.71
2022-12-28T08:32:10.895Z,9.78
2022-12-28T08:33:10.878Z,9.80
2022-12-28T08:34:10.871Z,9.78
2022-12-28T08:35:10.916Z,9.89
2022-12-28T08:36:11.331Z,9.92
2022-12-28T08:37:11.333Z,9.81
2022-12-28T08:38:10.819Z,9.95
2022-12-28T08:39:10.822Z,10.02
2022-12-28T08:40:10.807Z,10.01
2022-12-28T08:41:10.828Z,10.11
2022-12-28T08:42:10.791Z,10.22
2022-12-28T08:43:11.106Z,10.20
2022-12-28T08:44:10.766Z,10.25
2022-12-28T08:45:10.893Z,10.28
2022-12-28T08:46:11.569Z,10.25
2022-12-28T08:47:10.768Z,10.32
2022-12-28T08:48:10.715Z,10.39
2022-12-28T08:49:10.717Z,10.44
2022-12-28T08:50:12.287Z,10.44
2022-12-28T08:51:10.710Z,10.52
2022-12-28T08:52:11.038Z,10.42
2022-12-28T08:53:10.674Z,10.52
2022-12-28T08:54:11.581Z,10.52
2022-12-28T08:55:12.183Z,10.52
2022-12-28T08:56:10.666Z,10.54
2022-12-28T08:57:10.636Z,10.54
2022-12-28T08:58:10.618Z,10.51
2022-12-28T08:59:10.595Z,10.44
2022-12-28T09:00:10.581Z,10.44
2022-12-28T09:01:10.644Z,10.36
2022-12-28T09:02:10.698Z,10.43
2022-12-28T09:03:11.226Z,10.42
2022-12-28T09:04:10.805Z,10.44
2022-12-28T09:05:10.530Z,10.31
2022-12-28T09:06:10.523Z,10.36
2022-12-28T09:07:10.524Z,10.39
2022-12-28T09:08:10.511Z,10.47
2022-12-28T09:09:10.484Z,10.42
2022-12-28T09:10:10.618Z,10.35
2022-12-28T09:11:10.585Z,10.39
2022-12-28T09:12:14.068Z,10.46
2022-12-28T09:13:10.642Z,10.43
2022-12-28T09:14:10.431Z,10.42
2022-12-28T09:15:10.415Z,10.44
2022-12-28T09:16:10.550Z,10.51
2022-12-28T09:17:10.416Z,10.51
2022-12-28T09:18:10.428Z,10.49
2022-12-28T09:19:10.435Z,10.51
2022-12-28T09:20:10.870Z,10.55
2022-12-28T09:21:10.568Z,10.58
2022-12-28T09:22:10.984Z,10.52
2022-12-28T09:23:10.392Z,10.68
2022-12-28T09:24:10.369Z,10.72
2022-12-28T09:25:10.385Z,10.72
2022-12-28T09:26:10.346Z,10.78
2022-12-28T09:27:10.344Z,10.80
2022-12-28T09:28:10.346Z,10.98
2022-12-28T09:29:10.331Z,10.98
2022-12-28T09:30:11.139Z,10.99
2022-12-28T09:31:11.365Z,11.01
2022-12-28T09:32:10.244Z,11.06
2022-12-28T09:33:10.264Z,11.08
2022-12-28T09:35:11.213Z,11.16
2022-12-28T09:36:10.201Z,11.20
2022-12-28T09:37:10.204Z,11.13
2022-12-28T09:38:10.284Z,11.30
2022-12-28T09:39:11.152Z,11.27
2022-12-28T09:40:10.172Z,11.24
2022-12-28T09:41:10.145Z,11.28
2022-12-28T09:42:10.131Z,11.28
2022-12-28T09:43:10.112Z,11.39
2022-12-28T09:44:10.107Z,11.39
2022-12-28T09:45:10.132Z,11.46
2022-12-28T09:46:10.180Z,11.35
2022-12-28T09:47:10.208Z,11.45
2022-12-28T09:48:11.171Z,11.44
2022-12-28T09:49:10.049Z,11.46
2022-12-28T09:50:10.039Z,11.60
2022-12-28T09:51:10.043Z,11.64
2022-12-28T09:52:10.033Z,11.79
2022-12-28T09:53:10.034Z,11.88
2022-12-28T09:54:10.014Z,11.87
2022-12-28T09:55:10.000Z,11.88
2022-12-28T09:56:10.022Z,12.03
2022-12-28T09:57:13.489Z,12.03
2022-12-28T09:58:09.959Z,12.11
2022-12-28T09:59:09.969Z,12.11
2022-12-28T10:00:09.929Z,12.31
2022-12-28T10:01:09.955Z,12.51
2022-12-28T10:02:09.982Z,12.61
2022-12-28T10:03:10.091Z,12.79
2022-12-28T10:04:09.907Z,12.94
2022-12-28T10:05:10.800Z,12.89
2022-12-28T10:06:15.454Z,12.85
2022-12-28T10:07:09.868Z,12.89
2022-12-28T10:08:09.851Z,12.84
2022-12-28T10:09:09.833Z,12.98
2022-12-28T10:10:09.825Z,13.03
2022-12-28T10:11:09.807Z,12.88
2022-12-28T10:12:09.854Z,12.71
2022-12-28T10:13:37.167Z,12.73
2022-12-28T10:14:11.540Z,12.88
2022-12-28T10:15:12.341Z,12.85
2022-12-28T10:16:09.804Z,12.84
2022-12-28T10:17:09.789Z,12.88
2022-12-28T10:18:09.736Z,12.92
2022-12-28T10:19:09.723Z,13.04
2022-12-28T10:20:09.712Z,12.92
2022-12-28T10:21:09.702Z,12.87
2022-12-28T10:22:09.716Z,13.06
2022-12-28T10:23:10.997Z,13.01
2022-12-28T10:24:41.200Z,13.12
2022-12-28T10:25:10.654Z,13.04
2022-12-28T10:26:09.642Z,13.38
2022-12-28T10:27:09.648Z,13.54
2022-12-28T10:28:09.637Z,13.75
2022-12-28T10:29:09.627Z,13.93
2022-12-28T10:30:09.622Z,14.16
2022-12-28T10:31:09.756Z,14.11
2022-12-28T10:32:10.417Z,14.20
2022-12-28T10:33:13.797Z,14.13
2022-12-28T10:34:09.559Z,14.29
2022-12-28T10:35:09.547Z,14.27
2022-12-28T10:36:09.534Z,14.05
2022-12-28T10:37:14.076Z,13.68
2022-12-28T10:38:09.514Z,13.73
2022-12-28T10:39:09.532Z,13.90
2022-12-28T10:40:09.738Z,13.65
2022-12-28T10:41:09.624Z,13.86
2022-12-28T10:42:09.891Z,14.05
2022-12-28T10:43:11.266Z,14.12
2022-12-28T10:44:38.295Z,14.01
2022-12-28T10:45:10.440Z,13.68
2022-12-28T10:46:09.428Z,13.65
2022-12-28T10:47:09.412Z,13.79
2022-12-28T10:48:09.524Z,14.11
2022-12-28T10:49:15.255Z,14.31
2022-12-28T10:50:36.971Z,14.63
2022-12-28T10:51:10.456Z,14.71
2022-12-28T10:52:09.360Z,14.59
2022-12-28T10:53:09.406Z,14.45
2022-12-28T10:54:09.333Z,14.21
2022-12-28T10:55:09.319Z,13.50
2022-12-28T10:56:09.329Z,13.06
2022-12-28T10:57:09.395Z,12.74
2022-12-28T10:59:10.568Z,12.43
2022-12-28T11:00:09.370Z,12.15
2022-12-28T11:01:09.348Z,12.00
2022-12-28T11:02:09.318Z,12.00
2022-12-28T11:03:09.300Z,11.88
2022-12-28T11:04:09.259Z,11.87
2022-12-28T11:05:09.213Z,11.88
2022-12-28T11:06:09.286Z,11.79
2022-12-28T11:07:09.367Z,11.82
2022-12-28T11:08:02.336Z,11.67
2022-12-28T11:09:02.094Z,11.69
2022-12-28T11:10:09.145Z,11.59
2022-12-28T11:11:03.789Z,11.59
2022-12-28T11:12:02.088Z,11.56
2022-12-28T11:13:02.031Z,11.57
2022-12-28T11:14:02.016Z,11.51
2022-12-28T11:15:02.006Z,11.56
2022-12-28T11:16:02.120Z,11.54
2022-12-28T11:17:01.999Z,11.64
2022-12-28T11:18:01.991Z,11.97
2022-12-28T11:19:04.022Z,12.13
2022-12-28T11:20:02.239Z,12.25
2022-12-28T11:21:02.018Z,12.38
2022-12-28T11:22:01.951Z,12.41
2022-12-28T11:23:01.915Z,12.41
2022-12-28T11:24:01.906Z,12.49
2022-12-28T11:25:01.904Z,12.69
2022-12-28T11:26:01.886Z,12.63
2022-12-28T11:27:01.949Z,12.74
2022-12-28T11:28:02.107Z,12.96
2022-12-28T11:29:02.138Z,13.06
2022-12-28T11:30:01.847Z,13.21
2022-12-28T11:31:01.831Z,13.29
2022-12-28T11:32:01.951Z,13.36
2022-12-28T11:33:01.801Z,13.50
2022-12-28T11:34:01.811Z,13.38
2022-12-28T11:35:01.901Z,13.62
2022-12-28T11:36:06.881Z,13.69
2022-12-28T11:37:03.603Z,13.69
2022-12-28T11:38:02.102Z,13.68
2022-12-28T11:39:01.750Z,13.63
2022-12-28T11:40:01.746Z,13.41
2022-12-28T11:41:01.726Z,13.14
2022-12-28T11:43:02.703Z,13.13
2022-12-28T11:44:01.694Z,13.03
2022-12-28T11:45:02.105Z,13.17
2022-12-28T11:46:02.866Z,13.13
2022-12-28T11:47:02.838Z,13.04
2022-12-28T11:48:01.674Z,12.87
2022-12-28T11:49:01.636Z,12.69
2022-12-28T11:50:01.637Z,12.41
2022-12-28T11:51:01.621Z,12.41
2022-12-28T11:52:01.663Z,12.48
2022-12-28T11:53:01.616Z,12.38
2022-12-28T11:54:01.778Z,12.26
2022-12-28T11:55:02.581Z,12.08
2022-12-28T11:56:02.564Z,11.97
2022-12-28T11:57:01.569Z,12.04
2022-12-28T11:58:01.540Z,11.93
2022-12-28T11:59:01.606Z,11.98
2022-12-28T12:00:01.556Z,11.96
2022-12-28T12:01:01.569Z,11.97
2022-12-28T12:02:01.620Z,11.98
2022-12-28T12:03:01.734Z,12.00
2022-12-28T12:04:01.752Z,12.03
2022-12-28T12:05:01.635Z,12.00
2022-12-28T12:06:01.471Z,11.97
2022-12-28T12:07:01.510Z,11.97
2022-12-28T12:08:01.445Z,12.12
2022-12-28T12:09:01.443Z,12.48
2022-12-28T12:10:01.461Z,12.55
2022-12-28T12:11:01.409Z,12.89
2022-12-28T12:12:01.932Z,13.10
2022-12-28T12:13:01.811Z,13.35
2022-12-28T12:14:01.553Z,13.38
2022-12-28T12:15:01.357Z,13.31
2022-12-28T12:16:01.438Z,12.98
2022-12-28T12:17:01.382Z,12.85
2022-12-28T12:18:01.360Z,12.58
2022-12-28T12:19:01.670Z,12.61
2022-12-28T12:20:01.342Z,12.46
2022-12-28T12:21:01.895Z,12.40
2022-12-28T12:22:01.713Z,12.55
2022-12-28T12:23:01.542Z,12.74
2022-12-28T12:24:01.268Z,12.85
2022-12-28T12:25:01.275Z,12.94
2022-12-28T12:26:01.241Z,13.03
2022-12-28T12:27:01.262Z,13.04
2022-12-28T12:28:01.241Z,13.06
2022-12-28T12:29:01.286Z,12.96
2022-12-28T12:30:02.084Z,12.96
2022-12-28T12:31:01.578Z,12.81
2022-12-28T12:32:01.446Z,12.95
2022-12-28T12:33:01.165Z,12.99
2022-12-28T12:34:01.157Z,12.95
2022-12-28T12:35:01.138Z,13.04
2022-12-28T12:36:01.146Z,13.27
2022-12-28T12:37:01.176Z,13.53
2022-12-28T12:38:01.117Z,13.69
2022-12-28T12:39:02.875Z,13.80
2022-12-28T12:40:01.508Z,13.90
2022-12-28T12:41:01.274Z,13.94
2022-12-28T12:42:01.123Z,14.26
2022-12-28T12:43:01.064Z,14.41
2022-12-28T12:44:01.042Z,14.23
2022-12-28T12:45:01.040Z,14.26
2022-12-28T12:46:01.058Z,14.29
2022-12-28T12:47:05.611Z,14.29
2022-12-28T12:48:01.968Z,14.20
2022-12-28T12:49:01.334Z,14.05
2022-12-28T12:50:01.209Z,13.88
2022-12-28T12:51:00.968Z,13.83
2022-12-28T12:52:00.989Z,13.90
2022-12-28T12:53:00.947Z,13.86
2022-12-28T12:54:00.944Z,13.63
2022-12-28T12:55:00.956Z,13.63
2022-12-28T12:56:01.096Z,13.75
2022-12-28T12:57:01.469Z,13.57
2022-12-28T12:58:01.339Z,13.59
2022-12-28T12:59:00.880Z,13.72
2022-12-28T13:00:00.911Z,13.51
2022-12-28T13:01:00.998Z,13.39
2022-12-28T13:02:00.982Z,13.31
2022-12-28T13:03:00.944Z,13.41
2022-12-28T13:04:00.847Z,13.48
2022-12-28T13:05:00.845Z,13.57
2022-12-28T13:06:02.172Z,13.47
2022-12-28T13:07:01.143Z,13.66
2022-12-28T13:08:00.826Z,13.54
2022-12-28T13:09:05.418Z,13.66
2022-12-28T13:10:01.792Z,13.88
2022-12-28T13:11:00.817Z,14.06
2022-12-28T13:12:00.760Z,14.36
2022-12-28T13:13:00.755Z,14.64
2022-12-28T13:14:00.731Z,15.04
2022-12-28T13:15:01.165Z,15.12
2022-12-28T13:16:02.035Z,15.01
2022-12-28T13:17:00.721Z,14.78